Pintail — WDF5177 — position and weather

sailwx.info

Track history (hours):
 
Tides and Currents Weather Stations Pressure Air Temp Water Temp Dewpoint Dewpoint Depression Visibility Wind Speed Wind Dir Waves Ship Positions

Pintail

Owner: Pintail Marine Services, Inc, Friday Harbor, WA. More information available from US FCC via Universal Licensing System and Coast Guard Vessel Documentation Center.

Last reported at 2015-May-27 17:33 UTC. Time now 2015-May-27 17:59 UTC.
Position N 48°32' W 122°60'.

Length 19 m.

Type: Towing. MMSI: 367460260.

Date/timePositionNaut miles runAvg speedWind from/ knotsBaromVisibWave heightAir tempDewpointWater temp
2015-May-27 17:33N 48°32' W 122°60'0 0.4
2015-May-27 16:31N 48°32' W 123°00'0 0.4
2015-May-27 15:32N 48°32' W 122°60'0 0.0
2015-May-27 14:32N 48°32' W 122°60'0 0.0
2015-May-27 13:32N 48°32' W 122°60'0 0.0
2015-May-27 12:32N 48°32' W 122°60'0 0.0
2015-May-27 11:29N 48°32' W 122°60'0 0.0
2015-May-27 10:32N 48°32' W 122°60'0 0.0
2015-May-27 09:32N 48°32' W 122°60'0 0.0
2015-May-27 08:29N 48°32' W 122°60'0 0.0
2015-May-27 07:32N 48°32' W 122°60'0 0.0
2015-May-27 06:32N 48°32' W 122°60'0 0.0
2015-May-27 05:26N 48°32' W 122°60'0 0.0
2015-May-27 04:32N 48°32' W 122°60'0 0.0
2015-May-27 03:32N 48°32' W 122°60'0 0.0
2015-May-27 02:32N 48°32' W 122°60'0 0.0
2015-May-27 01:32N 48°32' W 122°60'0 0.0
2015-May-27 00:32N 48°32' W 122°60'0 0.1
2015-May-26 23:33N 48°32' W 122°60'0 0.3
2015-May-26 22:33N 48°32' W 123°00'0 0.2
2015-May-26 21:30N 48°32' W 123°00'1 0.5
2015-May-26 20:33N 48°32' W 123°00'5 4.7
2015-May-26 19:33N 48°34' W 122°54'6 6.2
2015-May-26 18:33N 48°31' W 122°46'2 0.7
2015-May-26 16:04N 48°32' W 122°43'3 6.7
2015-May-26 15:33N 48°32' W 122°48'6 5.7
2015-May-26 14:33N 48°33' W 122°57'2 2.1
2015-May-26 13:32N 48°32' W 122°60'0 0.0
2015-May-26 12:32N 48°32' W 122°60'0 0.0
2015-May-26 11:32N 48°32' W 122°60'0 0.0
2015-May-26 10:32N 48°32' W 122°60'0 0.0
2015-May-26 09:29N 48°32' W 122°60'0 0.0
2015-May-26 08:32N 48°32' W 122°60'0 0.0
2015-May-26 07:32N 48°32' W 122°60'0 0.0
2015-May-26 06:32N 48°32' W 122°60'0 0.0
2015-May-26 05:32N 48°32' W 122°60'0 0.0
2015-May-26 04:32N 48°32' W 122°60'0 0.0
2015-May-26 03:32N 48°32' W 122°60'0 0.0
2015-May-26 02:32N 48°32' W 122°60'0 0.0
2015-May-26 01:32N 48°32' W 122°60'0 0.0
2015-May-26 00:32N 48°32' W 122°60'0 0.0
2015-May-25 23:32N 48°32' W 122°60'0 0.0
2015-May-25 22:32N 48°32' W 122°60'0 0.0
2015-May-25 21:32N 48°32' W 122°60'0 0.0
2015-May-25 20:32N 48°32' W 122°60'0 0.0
2015-May-25 19:32N 48°32' W 122°60'0 0.0
2015-May-25 18:29N 48°32' W 122°60'0 0.0
2015-May-25 17:32N 48°32' W 122°60'0 0.0
2015-May-25 16:29N 48°32' W 122°60'0 0.0
2015-May-25 15:32N 48°32' W 122°60'0 0.0
2015-May-25 14:32N 48°32' W 122°60'0 0.0
2015-May-25 13:32N 48°32' W 122°60'0 0.0
2015-May-25 12:29N 48°32' W 122°60'0 0.0
2015-May-25 11:32N 48°32' W 122°60'0 0.0
2015-May-25 10:32N 48°32' W 122°60'0 0.0
2015-May-25 09:32N 48°32' W 122°60'0 0.0
2015-May-25 08:32N 48°32' W 122°60'0 0.0
2015-May-25 07:32N 48°32' W 122°60'0 0.0
2015-May-25 06:32N 48°32' W 122°60'0 0.0
2015-May-25 05:32N 48°32' W 122°60'0 0.0
2015-May-25 04:32N 48°32' W 122°60'0 0.0
2015-May-25 03:32N 48°32' W 122°60'0 0.0
2015-May-25 02:32N 48°32' W 122°60'0 0.0
2015-May-25 01:32N 48°32' W 122°60'0 0.0
2015-May-25 00:26N 48°32' W 122°60'0 0.0
2015-May-24 23:32N 48°32' W 122°60'0 0.0
2015-May-24 22:32N 48°32' W 122°60'0 0.0
2015-May-24 21:31N 48°32' W 122°60'0 0.0
2015-May-24 20:32N 48°32' W 122°60'0 0.0
2015-May-24 19:32N 48°32' W 122°60'0 0.0
2015-May-24 18:32N 48°32' W 122°60'0 0.0
2015-May-24 17:32N 48°32' W 122°60'0 0.0
2015-May-24 16:32N 48°32' W 122°60'0 0.0
2015-May-24 15:32N 48°32' W 122°60'0 0.0
2015-May-24 14:32N 48°32' W 122°60'0 0.0
2015-May-24 13:32N 48°32' W 122°60'0 0.0
2015-May-24 12:31N 48°32' W 122°60'0 0.0
2015-May-24 11:25N 48°32' W 122°60'0 0.0
2015-May-24 10:31N 48°32' W 122°60'0 0.0
2015-May-24 09:31N 48°32' W 122°60'0 0.0
2015-May-24 08:31N 48°32' W 122°60'0 0.0
2015-May-24 07:32N 48°32' W 122°60'0 0.0
2015-May-24 06:32N 48°32' W 122°60'0 0.0
2015-May-24 05:32N 48°32' W 122°60'0 0.0
2015-May-24 04:32N 48°32' W 122°60'0 0.0
2015-May-24 03:32N 48°32' W 122°60'0 0.0
2015-May-24 02:32N 48°32' W 122°60'0 0.0
2015-May-24 01:32N 48°32' W 122°60'0 0.0
2015-May-24 00:32N 48°32' W 122°60'0 0.0
2015-May-23 23:32N 48°32' W 122°60'0 0.0
2015-May-23 22:32N 48°32' W 122°60'0 0.0
2015-May-23 21:32N 48°32' W 122°60'0 0.0
2015-May-23 20:26N 48°32' W 122°60'0 0.0
2015-May-23 19:32N 48°32' W 122°60'0 0.0
2015-May-23 18:32N 48°32' W 122°60'0 0.0
2015-May-23 17:32N 48°32' W 122°60'0 0.0
2015-May-23 16:32N 48°32' W 122°60'0 0.0
2015-May-23 15:32N 48°32' W 122°60'0 0.0
2015-May-23 14:32N 48°32' W 122°60'0 0.0
2015-May-23 13:32N 48°32' W 122°60'0 0.0
2015-May-23 12:32N 48°32' W 122°60'0 0.0
2015-May-23 11:29N 48°32' W 122°60'0 0.0
2015-May-23 10:29N 48°32' W 122°60'0 0.0
2015-May-23 09:32N 48°32' W 122°60'0 0.0
2015-May-23 08:32N 48°32' W 122°60'0 0.0
2015-May-23 07:32N 48°32' W 122°60'0 0.0
2015-May-23 06:32N 48°32' W 122°60'0 0.0
2015-May-23 05:32N 48°32' W 122°60'0 0.0
2015-May-23 04:32N 48°32' W 122°60'0 0.0
2015-May-23 03:32N 48°32' W 122°60'0 0.0
2015-May-23 02:32N 48°32' W 122°60'0 0.0
2015-May-23 01:32N 48°32' W 122°60'0 0.0
2015-May-23 00:28N 48°32' W 122°60'0 0.0
2015-May-22 23:31N 48°32' W 122°60'0 0.0
2015-May-22 22:22N 48°32' W 122°60'0 0.0
2015-May-22 21:31N 48°32' W 122°60'0 0.1
2015-May-22 20:33N 48°32' W 122°60'5 4.7
2015-May-22 19:33N 48°34' W 122°54'5 5.3
2015-May-22 18:33N 48°32' W 122°47'7 6.1
2015-May-22 17:26N 48°31' W 122°36'2 2.0
2015-May-22 16:33N 48°32' W 122°39'7 6.5
2015-May-22 15:32N 48°32' W 122°49'5 5.4
2015-May-22 14:33N 48°33' W 122°57'2 2.2
2015-May-22 13:32N 48°32' W 122°60'0 0.0
2015-May-22 12:32N 48°32' W 122°60'0 0.0
2015-May-22 11:32N 48°32' W 122°60'0 0.0
2015-May-22 10:32N 48°32' W 122°60'0 0.0
2015-May-22 09:32N 48°32' W 122°60'0 0.0
2015-May-22 08:32N 48°32' W 122°60'0 0.0
2015-May-22 07:32N 48°32' W 122°60'0 0.0
2015-May-22 06:32N 48°32' W 122°60'0 0.0
2015-May-22 05:32N 48°32' W 122°60'0 0.0
2015-May-22 04:29N 48°32' W 122°60'0 0.0
2015-May-22 03:29N 48°32' W 122°60'0 0.0
2015-May-22 02:32N 48°32' W 122°60'0 0.0
2015-May-22 01:31N 48°32' W 122°60'0 0.0
2015-May-22 00:31N 48°32' W 122°60'0 0.0
2015-May-21 23:31N 48°32' W 122°60'0 0.0
2015-May-21 22:28N 48°32' W 122°60'0 0.0
2015-May-21 21:31N 48°32' W 122°60'0 0.0
2015-May-21 20:28N 48°32' W 122°60'0 0.0
2015-May-21 19:31N 48°32' W 122°60'3 3.3
2015-May-21 18:31N 48°35' W 123°02'5 1.0
2015-May-21 13:11N 48°37' W 123°09'0 0.0
2015-May-21 02:07N 48°37' W 123°09'3 1.0
2015-May-20 23:29N 48°38' W 123°06'3 6.3
2015-May-20 23:05N 48°36' W 123°05'4 6.4
2015-May-20 22:31N 48°34' W 123°00'2 5.6
2015-May-20 22:10N 48°32' W 123°00'0 0.1
2015-May-20 21:32N 48°32' W 122°60'0 0.1
2015-May-20 20:29N 48°32' W 122°60'4 4.4
2015-May-20 19:33N 48°34' W 122°55'5 4.5
2015-May-20 18:32N 48°32' W 122°48'6 6.0
2015-May-20 17:33N 48°32' W 122°39'1 0.6
2015-May-20 16:32N 48°32' W 122°38'5 5.5
2015-May-20 15:33N 48°32' W 122°47'6 5.6
2015-May-20 14:32N 48°34' W 122°55'4 3.8
2015-May-20 13:32N 48°32' W 122°60'0 0.0
2015-May-20 12:32N 48°32' W 122°60'0 0.0
2015-May-20 11:29N 48°32' W 122°60'0 0.0
2015-May-20 10:32N 48°32' W 122°60'0 0.0
2015-May-20 09:29N 48°32' W 122°60'0 0.0
2015-May-20 08:32N 48°32' W 122°60'0 0.0
2015-May-20 07:32N 48°32' W 122°60'0 0.0
2015-May-20 06:32N 48°32' W 122°60'0 0.0
2015-May-20 05:32N 48°32' W 122°60'0 0.0
2015-May-20 04:32N 48°32' W 122°60'0 0.0
2015-May-20 03:32N 48°32' W 122°60'0 0.0
2015-May-20 02:32N 48°32' W 122°60'0 0.0
2015-May-20 01:29N 48°32' W 122°60'0 0.0
2015-May-20 00:32N 48°32' W 122°60'0 0.0
2015-May-19 23:33N 48°32' W 122°60'0 0.0
2015-May-19 22:32N 48°32' W 122°60'0 0.0
2015-May-19 21:32N 48°32' W 122°60'0 0.0
2015-May-19 20:32N 48°32' W 122°60'0 0.0
2015-May-19 19:32N 48°32' W 122°60'0 0.0
2015-May-19 18:29N 48°32' W 122°60'0 0.0
2015-May-19 17:33N 48°32' W 122°60'0 0.0
2015-May-19 16:33N 48°32' W 122°60'0 0.4
2015-May-19 15:33N 48°32' W 123°00'0 0.4
2015-May-19 14:32N 48°32' W 122°60'0 0.0
2015-May-19 13:32N 48°32' W 122°60'0 0.0
2015-May-19 12:32N 48°32' W 122°60'0 0.0
2015-May-19 11:32N 48°32' W 122°60'0 0.0
2015-May-19 10:29N 48°32' W 122°60'0 0.0
2015-May-19 09:32N 48°32' W 122°60'0 0.0
2015-May-19 08:32N 48°32' W 122°60'0 0.0
2015-May-19 07:32N 48°32' W 122°60'0 0.0
2015-May-19 06:32N 48°32' W 122°60'0 0.0
2015-May-19 05:32N 48°32' W 122°60'0 0.0
2015-May-19 04:32N 48°32' W 122°60'0 0.0
2015-May-19 03:32N 48°32' W 122°60'0 0.0
2015-May-19 02:32N 48°32' W 122°60'0 0.0
2015-May-19 01:32N 48°32' W 122°60'0 0.0
2015-May-19 00:29N 48°32' W 122°60'0 0.0
2015-May-18 23:33N 48°32' W 122°60'0 0.0
2015-May-18 22:33N 48°32' W 122°60'0 0.0
2015-May-18 21:30N 48°32' W 122°60'0 0.1
2015-May-18 20:33N 48°32' W 122°60'5 5.1
2015-May-18 19:33N 48°34' W 122°53'6 5.5
2015-May-18 18:32N 48°32' W 122°46'6 5.0
2015-May-18 17:17N 48°31' W 122°36'4 3.9
2015-May-18 16:08N 48°32' W 122°43'4 6.2
2015-May-18 15:33N 48°32' W 122°48'5 5.3
2015-May-18 14:33N 48°33' W 122°56'3 2.6
2015-May-18 13:32N 48°32' W 122°60'0 0.0
2015-May-18 12:32N 48°32' W 122°60'0 0.0
2015-May-18 11:32N 48°32' W 122°60'0 0.0
2015-May-18 10:32N 48°32' W 122°60'0 0.0
2015-May-18 09:29N 48°32' W 122°60'0 0.0
2015-May-18 08:32N 48°32' W 122°60'0 0.0
2015-May-18 07:32N 48°32' W 122°60'0 0.0
2015-May-18 06:32N 48°32' W 122°60'0 0.0
2015-May-18 05:29N 48°32' W 122°60'0 0.0
2015-May-18 04:32N 48°32' W 122°60'0 0.0
2015-May-18 03:32N 48°32' W 122°60'0 0.0
2015-May-18 02:32N 48°32' W 122°60'0 0.0
2015-May-18 01:32N 48°32' W 122°60'0 0.0
2015-May-18 00:33N 48°32' W 122°60'0 0.0
2015-May-17 23:32N 48°32' W 122°60'0 0.0
2015-May-17 22:30N 48°32' W 122°60'0 0.0
2015-May-17 21:33N 48°32' W 122°60'0 0.0
2015-May-17 20:33N 48°32' W 122°60'0 0.0
2015-May-17 19:33N 48°32' W 122°60'0 0.0
2015-May-17 18:33N 48°32' W 122°60'  
Track history (hours):
 
Tides and Currents Weather Stations Pressure Air Temp Water Temp Dewpoint Dewpoint Depression Visibility Wind Speed Wind Dir Waves Ship Positions

Pintail

Owner: Pintail Marine Services, Inc, Friday Harbor, WA. More information available from US FCC via Universal Licensing System and Coast Guard Vessel Documentation Center.

Last reported at 2015-May-27 17:33 UTC. Time now 2015-May-27 17:59 UTC.
Position N 48°32' W 122°60'.

Length 19 m.

Type: Towing. MMSI: 367460260.

Date/timePositionNaut miles runAvg speedWind from/ knotsBaromVisibWave heightAir tempDewpointWater temp
2015-May-27 17:33N 48°32' W 122°60'0 0.4
2015-May-27 16:31N 48°32' W 123°00'0 0.4
2015-May-27 15:32N 48°32' W 122°60'0 0.0
2015-May-27 14:32N 48°32' W 122°60'0 0.0
2015-May-27 13:32N 48°32' W 122°60'0 0.0
2015-May-27 12:32N 48°32' W 122°60'0 0.0
2015-May-27 11:29N 48°32' W 122°60'0 0.0
2015-May-27 10:32N 48°32' W 122°60'0 0.0
2015-May-27 09:32N 48°32' W 122°60'0 0.0
2015-May-27 08:29N 48°32' W 122°60'0 0.0
2015-May-27 07:32N 48°32' W 122°60'0 0.0
2015-May-27 06:32N 48°32' W 122°60'0 0.0
2015-May-27 05:26N 48°32' W 122°60'0 0.0
2015-May-27 04:32N 48°32' W 122°60'0 0.0
2015-May-27 03:32N 48°32' W 122°60'0 0.0
2015-May-27 02:32N 48°32' W 122°60'0 0.0
2015-May-27 01:32N 48°32' W 122°60'0 0.0
2015-May-27 00:32N 48°32' W 122°60'0 0.1
2015-May-26 23:33N 48°32' W 122°60'0 0.3
2015-May-26 22:33N 48°32' W 123°00'0 0.2
2015-May-26 21:30N 48°32' W 123°00'1 0.5
2015-May-26 20:33N 48°32' W 123°00'5 4.7
2015-May-26 19:33N 48°34' W 122°54'6 6.2
2015-May-26 18:33N 48°31' W 122°46'2 0.7
2015-May-26 16:04N 48°32' W 122°43'3 6.7
2015-May-26 15:33N 48°32' W 122°48'6 5.7
2015-May-26 14:33N 48°33' W 122°57'2 2.1
2015-May-26 13:32N 48°32' W 122°60'0 0.0
2015-May-26 12:32N 48°32' W 122°60'0 0.0
2015-May-26 11:32N 48°32' W 122°60'0 0.0
2015-May-26 10:32N 48°32' W 122°60'0 0.0
2015-May-26 09:29N 48°32' W 122°60'0 0.0
2015-May-26 08:32N 48°32' W 122°60'0 0.0
2015-May-26 07:32N 48°32' W 122°60'0 0.0
2015-May-26 06:32N 48°32' W 122°60'0 0.0
2015-May-26 05:32N 48°32' W 122°60'0 0.0
2015-May-26 04:32N 48°32' W 122°60'0 0.0
2015-May-26 03:32N 48°32' W 122°60'0 0.0
2015-May-26 02:32N 48°32' W 122°60'0 0.0
2015-May-26 01:32N 48°32' W 122°60'0 0.0
2015-May-26 00:32N 48°32' W 122°60'0 0.0
2015-May-25 23:32N 48°32' W 122°60'0 0.0
2015-May-25 22:32N 48°32' W 122°60'0 0.0
2015-May-25 21:32N 48°32' W 122°60'0 0.0
2015-May-25 20:32N 48°32' W 122°60'0 0.0
2015-May-25 19:32N 48°32' W 122°60'0 0.0
2015-May-25 18:29N 48°32' W 122°60'0 0.0
2015-May-25 17:32N 48°32' W 122°60'0 0.0
2015-May-25 16:29N 48°32' W 122°60'0 0.0
2015-May-25 15:32N 48°32' W 122°60'0 0.0
2015-May-25 14:32N 48°32' W 122°60'0 0.0
2015-May-25 13:32N 48°32' W 122°60'0 0.0
2015-May-25 12:29N 48°32' W 122°60'0 0.0
2015-May-25 11:32N 48°32' W 122°60'0 0.0
2015-May-25 10:32N 48°32' W 122°60'0 0.0
2015-May-25 09:32N 48°32' W 122°60'0 0.0
2015-May-25 08:32N 48°32' W 122°60'0 0.0
2015-May-25 07:32N 48°32' W 122°60'0 0.0
2015-May-25 06:32N 48°32' W 122°60'0 0.0
2015-May-25 05:32N 48°32' W 122°60'0 0.0
2015-May-25 04:32N 48°32' W 122°60'0 0.0
2015-May-25 03:32N 48°32' W 122°60'0 0.0
2015-May-25 02:32N 48°32' W 122°60'0 0.0
2015-May-25 01:32N 48°32' W 122°60'0 0.0
2015-May-25 00:26N 48°32' W 122°60'0 0.0
2015-May-24 23:32N 48°32' W 122°60'0 0.0
2015-May-24 22:32N 48°32' W 122°60'0 0.0
2015-May-24 21:31N 48°32' W 122°60'0 0.0
2015-May-24 20:32N 48°32' W 122°60'0 0.0
2015-May-24 19:32N 48°32' W 122°60'0 0.0
2015-May-24 18:32N 48°32' W 122°60'0 0.0
2015-May-24 17:32N 48°32' W 122°60'0 0.0
2015-May-24 16:32N 48°32' W 122°60'0 0.0
2015-May-24 15:32N 48°32' W 122°60'0 0.0
2015-May-24 14:32N 48°32' W 122°60'0 0.0
2015-May-24 13:32N 48°32' W 122°60'0 0.0
2015-May-24 12:31N 48°32' W 122°60'0 0.0
2015-May-24 11:25N 48°32' W 122°60'0 0.0
2015-May-24 10:31N 48°32' W 122°60'0 0.0
2015-May-24 09:31N 48°32' W 122°60'0 0.0
2015-May-24 08:31N 48°32' W 122°60'0 0.0
2015-May-24 07:32N 48°32' W 122°60'0 0.0
2015-May-24 06:32N 48°32' W 122°60'0 0.0
2015-May-24 05:32N 48°32' W 122°60'0 0.0
2015-May-24 04:32N 48°32' W 122°60'0 0.0
2015-May-24 03:32N 48°32' W 122°60'0 0.0
2015-May-24 02:32N 48°32' W 122°60'0 0.0
2015-May-24 01:32N 48°32' W 122°60'0 0.0
2015-May-24 00:32N 48°32' W 122°60'0 0.0
2015-May-23 23:32N 48°32' W 122°60'0 0.0
2015-May-23 22:32N 48°32' W 122°60'0 0.0
2015-May-23 21:32N 48°32' W 122°60'0 0.0
2015-May-23 20:26N 48°32' W 122°60'0 0.0
2015-May-23 19:32N 48°32' W 122°60'0 0.0
2015-May-23 18:32N 48°32' W 122°60'0 0.0
2015-May-23 17:32N 48°32' W 122°60'0 0.0
2015-May-23 16:32N 48°32' W 122°60'0 0.0
2015-May-23 15:32N 48°32' W 122°60'0 0.0
2015-May-23 14:32N 48°32' W 122°60'0 0.0
2015-May-23 13:32N 48°32' W 122°60'0 0.0
2015-May-23 12:32N 48°32' W 122°60'0 0.0
2015-May-23 11:29N 48°32' W 122°60'0 0.0
2015-May-23 10:29N 48°32' W 122°60'0 0.0
2015-May-23 09:32N 48°32' W 122°60'0 0.0
2015-May-23 08:32N 48°32' W 122°60'0 0.0
2015-May-23 07:32N 48°32' W 122°60'0 0.0
2015-May-23 06:32N 48°32' W 122°60'0 0.0
2015-May-23 05:32N 48°32' W 122°60'0 0.0
2015-May-23 04:32N 48°32' W 122°60'0 0.0
2015-May-23 03:32N 48°32' W 122°60'0 0.0
2015-May-23 02:32N 48°32' W 122°60'0 0.0
2015-May-23 01:32N 48°32' W 122°60'0 0.0
2015-May-23 00:28N 48°32' W 122°60'0 0.0
2015-May-22 23:31N 48°32' W 122°60'0 0.0
2015-May-22 22:22N 48°32' W 122°60'0 0.0
2015-May-22 21:31N 48°32' W 122°60'0 0.1
2015-May-22 20:33N 48°32' W 122°60'5 4.7
2015-May-22 19:33N 48°34' W 122°54'5 5.3
2015-May-22 18:33N 48°32' W 122°47'7 6.1
2015-May-22 17:26N 48°31' W 122°36'2 2.0
2015-May-22 16:33N 48°32' W 122°39'7 6.5
2015-May-22 15:32N 48°32' W 122°49'5 5.4
2015-May-22 14:33N 48°33' W 122°57'2 2.2
2015-May-22 13:32N 48°32' W 122°60'0 0.0
2015-May-22 12:32N 48°32' W 122°60'0 0.0
2015-May-22 11:32N 48°32' W 122°60'0 0.0
2015-May-22 10:32N 48°32' W 122°60'0 0.0
2015-May-22 09:32N 48°32' W 122°60'0 0.0
2015-May-22 08:32N 48°32' W 122°60'0 0.0
2015-May-22 07:32N 48°32' W 122°60'0 0.0
2015-May-22 06:32N 48°32' W 122°60'0 0.0
2015-May-22 05:32N 48°32' W 122°60'0 0.0
2015-May-22 04:29N 48°32' W 122°60'0 0.0
2015-May-22 03:29N 48°32' W 122°60'0 0.0
2015-May-22 02:32N 48°32' W 122°60'0 0.0
2015-May-22 01:31N 48°32' W 122°60'0 0.0
2015-May-22 00:31N 48°32' W 122°60'0 0.0
2015-May-21 23:31N 48°32' W 122°60'0 0.0
2015-May-21 22:28N 48°32' W 122°60'0 0.0
2015-May-21 21:31N 48°32' W 122°60'0 0.0
2015-May-21 20:28N 48°32' W 122°60'0 0.0
2015-May-21 19:31N 48°32' W 122°60'3 3.3
2015-May-21 18:31N 48°35' W 123°02'5 1.0
2015-May-21 13:11N 48°37' W 123°09'0 0.0
2015-May-21 02:07N 48°37' W 123°09'3 1.0
2015-May-20 23:29N 48°38' W 123°06'3 6.3
2015-May-20 23:05N 48°36' W 123°05'4 6.4
2015-May-20 22:31N 48°34' W 123°00'2 5.6
2015-May-20 22:10N 48°32' W 123°00'0 0.1
2015-May-20 21:32N 48°32' W 122°60'0 0.1
2015-May-20 20:29N 48°32' W 122°60'4 4.4
2015-May-20 19:33N 48°34' W 122°55'5 4.5
2015-May-20 18:32N 48°32' W 122°48'6 6.0
2015-May-20 17:33N 48°32' W 122°39'1 0.6
2015-May-20 16:32N 48°32' W 122°38'5 5.5
2015-May-20 15:33N 48°32' W 122°47'6 5.6
2015-May-20 14:32N 48°34' W 122°55'4 3.8
2015-May-20 13:32N 48°32' W 122°60'0 0.0
2015-May-20 12:32N 48°32' W 122°60'0 0.0
2015-May-20 11:29N 48°32' W 122°60'0 0.0
2015-May-20 10:32N 48°32' W 122°60'0 0.0
2015-May-20 09:29N 48°32' W 122°60'0 0.0
2015-May-20 08:32N 48°32' W 122°60'0 0.0
2015-May-20 07:32N 48°32' W 122°60'0 0.0
2015-May-20 06:32N 48°32' W 122°60'0 0.0
2015-May-20 05:32N 48°32' W 122°60'0 0.0
2015-May-20 04:32N 48°32' W 122°60'0 0.0
2015-May-20 03:32N 48°32' W 122°60'0 0.0
2015-May-20 02:32N 48°32' W 122°60'0 0.0
2015-May-20 01:29N 48°32' W 122°60'0 0.0
2015-May-20 00:32N 48°32' W 122°60'0 0.0
2015-May-19 23:33N 48°32' W 122°60'0 0.0
2015-May-19 22:32N 48°32' W 122°60'0 0.0
2015-May-19 21:32N 48°32' W 122°60'0 0.0
2015-May-19 20:32N 48°32' W 122°60'0 0.0
2015-May-19 19:32N 48°32' W 122°60'0 0.0
2015-May-19 18:29N 48°32' W 122°60'0 0.0
2015-May-19 17:33N 48°32' W 122°60'0 0.0
2015-May-19 16:33N 48°32' W 122°60'0 0.4
2015-May-19 15:33N 48°32' W 123°00'0 0.4
2015-May-19 14:32N 48°32' W 122°60'0 0.0
2015-May-19 13:32N 48°32' W 122°60'0 0.0
2015-May-19 12:32N 48°32' W 122°60'0 0.0
2015-May-19 11:32N 48°32' W 122°60'0 0.0
2015-May-19 10:29N 48°32' W 122°60'0 0.0
2015-May-19 09:32N 48°32' W 122°60'0 0.0
2015-May-19 08:32N 48°32' W 122°60'0 0.0
2015-May-19 07:32N 48°32' W 122°60'0 0.0
2015-May-19 06:32N 48°32' W 122°60'0 0.0
2015-May-19 05:32N 48°32' W 122°60'0 0.0
2015-May-19 04:32N 48°32' W 122°60'0 0.0
2015-May-19 03:32N 48°32' W 122°60'0 0.0
2015-May-19 02:32N 48°32' W 122°60'0 0.0
2015-May-19 01:32N 48°32' W 122°60'0 0.0
2015-May-19 00:29N 48°32' W 122°60'0 0.0
2015-May-18 23:33N 48°32' W 122°60'0 0.0
2015-May-18 22:33N 48°32' W 122°60'0 0.0
2015-May-18 21:30N 48°32' W 122°60'0 0.1
2015-May-18 20:33N 48°32' W 122°60'5 5.1
2015-May-18 19:33N 48°34' W 122°53'6 5.5
2015-May-18 18:32N 48°32' W 122°46'6 5.0
2015-May-18 17:17N 48°31' W 122°36'4 3.9
2015-May-18 16:08N 48°32' W 122°43'4 6.2
2015-May-18 15:33N 48°32' W 122°48'5 5.3
2015-May-18 14:33N 48°33' W 122°56'3 2.6
2015-May-18 13:32N 48°32' W 122°60'0 0.0
2015-May-18 12:32N 48°32' W 122°60'0 0.0
2015-May-18 11:32N 48°32' W 122°60'0 0.0
2015-May-18 10:32N 48°32' W 122°60'0 0.0
2015-May-18 09:29N 48°32' W 122°60'0 0.0
2015-May-18 08:32N 48°32' W 122°60'0 0.0
2015-May-18 07:32N 48°32' W 122°60'0 0.0
2015-May-18 06:32N 48°32' W 122°60'0 0.0
2015-May-18 05:29N 48°32' W 122°60'0 0.0
2015-May-18 04:32N 48°32' W 122°60'0 0.0
2015-May-18 03:32N 48°32' W 122°60'0 0.0
2015-May-18 02:32N 48°32' W 122°60'0 0.0
2015-May-18 01:32N 48°32' W 122°60'0 0.0
2015-May-18 00:33N 48°32' W 122°60'0 0.0
2015-May-17 23:32N 48°32' W 122°60'0 0.0
2015-May-17 22:30N 48°32' W 122°60'0 0.0
2015-May-17 21:33N 48°32' W 122°60'0 0.0
2015-May-17 20:33N 48°32' W 122°60'0 0.0
2015-May-17 19:33N 48°32' W 122°60'0 0.0
2015-May-17 18:33N 48°32' W 122°60'  

Dump ship's entire track history